sensor_id;sensor_type;location;lat;lon;timestamp;P1;durP1;ratioP1;P2;durP2;ratioP2
70270;SDS011;57680;54.292;18.598;2023-07-13T00:00:55;11.00;;;4.67;;
70270;SDS011;57680;54.292;18.598;2023-07-13T00:03:20;13.77;;;4.50;;
70270;SDS011;57680;54.292;18.598;2023-07-13T00:05:46;15.53;;;5.03;;
70270;SDS011;57680;54.292;18.598;2023-07-13T00:08:11;13.35;;;4.70;;
70270;SDS011;57680;54.292;18.598;2023-07-13T00:10:40;17.07;;;5.23;;
70270;SDS011;57680;54.292;18.598;2023-07-13T00:13:05;11.30;;;5.05;;
70270;SDS011;57680;54.292;18.598;2023-07-13T00:15:31;19.33;;;5.87;;
70270;SDS011;57680;54.292;18.598;2023-07-13T00:17:57;17.50;;;5.47;;
70270;SDS011;57680;54.292;18.598;2023-07-13T00:20:23;18.47;;;5.67;;
70270;SDS011;57680;54.292;18.598;2023-07-13T00:22:49;11.27;;;4.95;;
70270;SDS011;57680;54.292;18.598;2023-07-13T00:25:16;10.07;;;4.80;;
70270;SDS011;57680;54.292;18.598;2023-07-13T00:27:42;8.20;;;4.63;;
70270;SDS011;57680;54.292;18.598;2023-07-13T00:30:09;8.80;;;4.25;;
70270;SDS011;57680;54.292;18.598;2023-07-13T00:32:35;10.02;;;4.60;;
70270;SDS011;57680;54.292;18.598;2023-07-13T00:35:01;10.67;;;5.10;;
70270;SDS011;57680;54.292;18.598;2023-07-13T00:37:27;10.38;;;5.15;;
70270;SDS011;57680;54.292;18.598;2023-07-13T00:39:52;10.43;;;4.80;;
70270;SDS011;57680;54.292;18.598;2023-07-13T00:42:17;14.07;;;5.07;;
70270;SDS011;57680;54.292;18.598;2023-07-13T00:45:02;11.45;;;5.35;;
70270;SDS011;57680;54.292;18.598;2023-07-13T00:47:48;10.65;;;5.05;;
70270;SDS011;57680;54.292;18.598;2023-07-13T00:50:14;12.97;;;5.90;;
70270;SDS011;57680;54.292;18.598;2023-07-13T00:52:42;11.80;;;5.80;;
70270;SDS011;57680;54.292;18.598;2023-07-13T00:55:10;10.98;;;5.38;;
70270;SDS011;57680;54.292;18.598;2023-07-13T00:57:36;15.98;;;5.80;;
70270;SDS011;57680;54.292;18.598;2023-07-13T01:00:03;11.17;;;5.60;;
70270;SDS011;57680;54.292;18.598;2023-07-13T01:02:30;11.43;;;5.80;;
70270;SDS011;57680;54.292;18.598;2023-07-13T01:04:56;10.43;;;5.10;;
70270;SDS011;57680;54.292;18.598;2023-07-13T01:07:21;11.20;;;5.72;;
70270;SDS011;57680;54.292;18.598;2023-07-13T01:09:47;11.68;;;6.30;;
70270;SDS011;57680;54.292;18.598;2023-07-13T01:12:13;14.13;;;6.30;;
70270;SDS011;57680;54.292;18.598;2023-07-13T01:14:38;11.13;;;6.10;;
70270;SDS011;57680;54.292;18.598;2023-07-13T01:17:04;18.10;;;6.90;;
70270;SDS011;57680;54.292;18.598;2023-07-13T01:19:33;13.73;;;6.13;;
70270;SDS011;57680;54.292;18.598;2023-07-13T01:22:06;12.85;;;6.38;;
70270;SDS011;57680;54.292;18.598;2023-07-13T01:24:37;13.20;;;6.30;;
70270;SDS011;57680;54.292;18.598;2023-07-13T01:27:04;13.93;;;6.83;;
70270;SDS011;57680;54.292;18.598;2023-07-13T01:29:31;11.80;;;5.80;;
70270;SDS011;57680;54.292;18.598;2023-07-13T01:31:58;10.55;;;6.07;;
70270;SDS011;57680;54.292;18.598;2023-07-13T01:34:23;13.45;;;6.28;;
70270;SDS011;57680;54.292;18.598;2023-07-13T01:36:49;13.00;;;6.17;;
70270;SDS011;57680;54.292;18.598;2023-07-13T01:39:14;12.97;;;6.00;;
70270;SDS011;57680;54.292;18.598;2023-07-13T01:41:40;14.13;;;5.93;;
70270;SDS011;57680;54.292;18.598;2023-07-13T01:44:05;12.65;;;6.07;;
70270;SDS011;57680;54.292;18.598;2023-07-13T01:46:31;12.77;;;6.27;;
70270;SDS011;57680;54.292;18.598;2023-07-13T01:48:56;13.00;;;6.40;;
70270;SDS011;57680;54.292;18.598;2023-07-13T01:51:22;12.03;;;6.43;;
70270;SDS011;57680;54.292;18.598;2023-07-13T01:53:47;12.77;;;6.32;;
70270;SDS011;57680;54.292;18.598;2023-07-13T01:56:12;12.67;;;6.17;;
70270;SDS011;57680;54.292;18.598;2023-07-13T01:58:38;14.97;;;5.70;;
70270;SDS011;57680;54.292;18.598;2023-07-13T02:01:03;12.03;;;5.70;;
70270;SDS011;57680;54.292;18.598;2023-07-13T02:03:29;13.60;;;5.50;;
70270;SDS011;57680;54.292;18.598;2023-07-13T02:05:54;13.30;;;5.53;;
70270;SDS011;57680;54.292;18.598;2023-07-13T02:08:20;13.07;;;6.00;;
70270;SDS011;57680;54.292;18.598;2023-07-13T02:10:45;15.37;;;5.97;;
70270;SDS011;57680;54.292;18.598;2023-07-13T02:13:11;13.38;;;6.00;;
70270;SDS011;57680;54.292;18.598;2023-07-13T02:15:39;11.60;;;5.60;;
70270;SDS011;57680;54.292;18.598;2023-07-13T02:18:05;11.00;;;5.90;;
70270;SDS011;57680;54.292;18.598;2023-07-13T02:20:30;13.50;;;5.63;;
70270;SDS011;57680;54.292;18.598;2023-07-13T02:22:55;12.43;;;5.33;;
70270;SDS011;57680;54.292;18.598;2023-07-13T02:25:21;10.47;;;5.40;;
70270;SDS011;57680;54.292;18.598;2023-07-13T02:27:46;12.65;;;5.60;;
70270;SDS011;57680;54.292;18.598;2023-07-13T02:30:12;11.90;;;6.10;;
70270;SDS011;57680;54.292;18.598;2023-07-13T02:32:37;11.90;;;5.70;;
70270;SDS011;57680;54.292;18.598;2023-07-13T02:35:03;13.60;;;5.73;;
70270;SDS011;57680;54.292;18.598;2023-07-13T02:37:29;10.30;;;5.57;;
70270;SDS011;57680;54.292;18.598;2023-07-13T02:39:54;13.18;;;5.80;;
70270;SDS011;57680;54.292;18.598;2023-07-13T02:42:19;12.53;;;5.73;;
70270;SDS011;57680;54.292;18.598;2023-07-13T02:44:45;12.80;;;6.13;;
70270;SDS011;57680;54.292;18.598;2023-07-13T02:47:10;11.77;;;5.60;;
70270;SDS011;57680;54.292;18.598;2023-07-13T02:49:36;11.80;;;5.55;;
70270;SDS011;57680;54.292;18.598;2023-07-13T02:52:02;12.63;;;5.70;;
70270;SDS011;57680;54.292;18.598;2023-07-13T02:54:27;11.65;;;5.30;;
70270;SDS011;57680;54.292;18.598;2023-07-13T02:56:53;9.20;;;5.07;;
70270;SDS011;57680;54.292;18.598;2023-07-13T02:59:18;12.30;;;5.40;;
70270;SDS011;57680;54.292;18.598;2023-07-13T03:01:43;14.60;;;5.53;;
70270;SDS011;57680;54.292;18.598;2023-07-13T03:04:09;12.13;;;5.83;;
70270;SDS011;57680;54.292;18.598;2023-07-13T03:06:34;10.45;;;5.68;;
70270;SDS011;57680;54.292;18.598;2023-07-13T03:09:00;12.20;;;5.03;;
70270;SDS011;57680;54.292;18.598;2023-07-13T03:11:26;12.47;;;5.27;;
70270;SDS011;57680;54.292;18.598;2023-07-13T03:13:51;11.95;;;5.00;;
70270;SDS011;57680;54.292;18.598;2023-07-13T03:16:17;13.40;;;5.60;;
70270;SDS011;57680;54.292;18.598;2023-07-13T03:18:42;13.65;;;6.00;;
70270;SDS011;57680;54.292;18.598;2023-07-13T03:21:08;11.30;;;5.65;;
70270;SDS011;57680;54.292;18.598;2023-07-13T03:23:34;13.67;;;5.70;;
70270;SDS011;57680;54.292;18.598;2023-07-13T03:26:08;13.40;;;5.30;;
70270;SDS011;57680;54.292;18.598;2023-07-13T03:28:35;12.33;;;5.70;;
70270;SDS011;57680;54.292;18.598;2023-07-13T03:31:06;13.27;;;5.57;;
70270;SDS011;57680;54.292;18.598;2023-07-13T03:33:33;12.93;;;5.70;;
70270;SDS011;57680;54.292;18.598;2023-07-13T03:35:59;11.77;;;5.38;;
70270;SDS011;57680;54.292;18.598;2023-07-13T03:38:24;10.47;;;4.77;;
70270;SDS011;57680;54.292;18.598;2023-07-13T03:40:50;12.63;;;5.40;;
70270;SDS011;57680;54.292;18.598;2023-07-13T03:43:15;11.50;;;5.07;;
70270;SDS011;57680;54.292;18.598;2023-07-13T03:45:41;11.97;;;5.40;;
70270;SDS011;57680;54.292;18.598;2023-07-13T03:48:06;11.30;;;5.43;;
70270;SDS011;57680;54.292;18.598;2023-07-13T03:50:31;12.30;;;4.88;;
70270;SDS011;57680;54.292;18.598;2023-07-13T03:52:57;10.77;;;5.73;;
70270;SDS011;57680;54.292;18.598;2023-07-13T03:55:23;13.77;;;5.25;;
70270;SDS011;57680;54.292;18.598;2023-07-13T03:57:59;8.70;;;4.60;;
70270;SDS011;57680;54.292;18.598;2023-07-13T04:00:45;10.38;;;4.68;;
70270;SDS011;57680;54.292;18.598;2023-07-13T04:03:10;12.67;;;4.20;;
70270;SDS011;57680;54.292;18.598;2023-07-13T04:05:35;11.43;;;4.13;;
70270;SDS011;57680;54.292;18.598;2023-07-13T04:08:01;12.37;;;4.47;;
70270;SDS011;57680;54.292;18.598;2023-07-13T04:10:27;10.27;;;3.87;;
70270;SDS011;57680;54.292;18.598;2023-07-13T04:12:52;11.37;;;4.30;;
70270;SDS011;57680;54.292;18.598;2023-07-13T04:15:18;10.38;;;3.70;;
70270;SDS011;57680;54.292;18.598;2023-07-13T04:17:44;8.53;;;3.80;;
70270;SDS011;57680;54.292;18.598;2023-07-13T04:20:10;8.25;;;3.72;;
70270;SDS011;57680;54.292;18.598;2023-07-13T04:22:35;8.00;;;3.37;;
70270;SDS011;57680;54.292;18.598;2023-07-13T04:25:01;8.60;;;3.40;;
70270;SDS011;57680;54.292;18.598;2023-07-13T04:27:27;7.65;;;3.40;;
70270;SDS011;57680;54.292;18.598;2023-07-13T04:29:52;8.90;;;3.40;;
70270;SDS011;57680;54.292;18.598;2023-07-13T04:32:19;10.57;;;3.50;;
70270;SDS011;57680;54.292;18.598;2023-07-13T04:34:44;8.13;;;3.60;;
70270;SDS011;57680;54.292;18.598;2023-07-13T04:37:10;7.53;;;3.47;;
70270;SDS011;57680;54.292;18.598;2023-07-13T04:39:35;12.53;;;4.13;;
70270;SDS011;57680;54.292;18.598;2023-07-13T04:42:01;9.57;;;4.00;;
70270;SDS011;57680;54.292;18.598;2023-07-13T04:44:26;10.30;;;3.20;;
70270;SDS011;57680;54.292;18.598;2023-07-13T04:46:51;11.48;;;3.65;;
70270;SDS011;57680;54.292;18.598;2023-07-13T04:49:17;9.33;;;3.40;;
70270;SDS011;57680;54.292;18.598;2023-07-13T04:51:43;7.20;;;3.37;;
70270;SDS011;57680;54.292;18.598;2023-07-13T04:54:08;9.48;;;3.30;;
70270;SDS011;57680;54.292;18.598;2023-07-13T04:56:35;8.33;;;3.10;;
70270;SDS011;57680;54.292;18.598;2023-07-13T04:59:00;9.40;;;3.17;;
70270;SDS011;57680;54.292;18.598;2023-07-13T05:01:26;9.87;;;3.30;;
70270;SDS011;57680;54.292;18.598;2023-07-13T05:03:51;9.40;;;3.20;;
70270;SDS011;57680;54.292;18.598;2023-07-13T05:06:17;9.50;;;3.28;;
70270;SDS011;57680;54.292;18.598;2023-07-13T05:08:42;7.23;;;3.07;;
70270;SDS011;57680;54.292;18.598;2023-07-13T05:11:08;8.83;;;3.47;;
70270;SDS011;57680;54.292;18.598;2023-07-13T05:13:33;6.47;;;3.15;;
70270;SDS011;57680;54.292;18.598;2023-07-13T05:16:03;8.73;;;3.10;;
70270;SDS011;57680;54.292;18.598;2023-07-13T05:18:30;7.38;;;3.13;;
70270;SDS011;57680;54.292;18.598;2023-07-13T05:20:57;8.63;;;2.85;;
70270;SDS011;57680;54.292;18.598;2023-07-13T05:23:31;8.90;;;2.67;;
70270;SDS011;57680;54.292;18.598;2023-07-13T05:25:57;7.40;;;3.08;;
70270;SDS011;57680;54.292;18.598;2023-07-13T05:28:23;7.30;;;2.60;;
70270;SDS011;57680;54.292;18.598;2023-07-13T05:30:49;8.23;;;2.80;;
70270;SDS011;57680;54.292;18.598;2023-07-13T05:33:15;8.60;;;2.80;;
70270;SDS011;57680;54.292;18.598;2023-07-13T05:35:40;6.15;;;2.60;;
70270;SDS011;57680;54.292;18.598;2023-07-13T05:38:07;5.53;;;2.50;;
70270;SDS011;57680;54.292;18.598;2023-07-13T05:40:33;8.68;;;3.10;;
70270;SDS011;57680;54.292;18.598;2023-07-13T05:42:58;8.57;;;2.90;;
70270;SDS011;57680;54.292;18.598;2023-07-13T05:45:23;7.38;;;2.55;;
70270;SDS011;57680;54.292;18.598;2023-07-13T05:47:49;8.80;;;2.10;;
70270;SDS011;57680;54.292;18.598;2023-07-13T05:50:14;6.07;;;2.30;;
70270;SDS011;57680;54.292;18.598;2023-07-13T05:52:40;7.23;;;2.13;;
70270;SDS011;57680;54.292;18.598;2023-07-13T05:55:06;6.03;;;2.20;;
70270;SDS011;57680;54.292;18.598;2023-07-13T05:57:31;7.72;;;2.15;;
70270;SDS011;57680;54.292;18.598;2023-07-13T05:59:57;7.37;;;1.80;;
70270;SDS011;57680;54.292;18.598;2023-07-13T06:02:22;8.53;;;2.27;;
70270;SDS011;57680;54.292;18.598;2023-07-13T06:04:48;7.35;;;2.25;;
70270;SDS011;57680;54.292;18.598;2023-07-13T06:07:14;6.77;;;2.23;;
70270;SDS011;57680;54.292;18.598;2023-07-13T06:09:40;6.07;;;2.20;;
70270;SDS011;57680;54.292;18.598;2023-07-13T06:12:05;5.10;;;2.30;;
70270;SDS011;57680;54.292;18.598;2023-07-13T06:14:31;6.30;;;1.97;;
70270;SDS011;57680;54.292;18.598;2023-07-13T06:16:57;5.80;;;2.40;;
70270;SDS011;57680;54.292;18.598;2023-07-13T06:19:22;5.67;;;2.60;;
70270;SDS011;57680;54.292;18.598;2023-07-13T06:21:48;5.53;;;2.37;;
70270;SDS011;57680;54.292;18.598;2023-07-13T06:24:13;7.05;;;2.28;;
70270;SDS011;57680;54.292;18.598;2023-07-13T06:26:39;7.90;;;2.10;;
70270;SDS011;57680;54.292;18.598;2023-07-13T06:29:04;6.37;;;2.33;;
70270;SDS011;57680;54.292;18.598;2023-07-13T06:31:29;7.03;;;2.30;;
70270;SDS011;57680;54.292;18.598;2023-07-13T06:33:57;6.82;;;2.20;;
70270;SDS011;57680;54.292;18.598;2023-07-13T06:36:23;5.33;;;2.30;;
70270;SDS011;57680;54.292;18.598;2023-07-13T06:38:48;5.82;;;2.60;;
70270;SDS011;57680;54.292;18.598;2023-07-13T06:41:14;6.43;;;2.30;;
70270;SDS011;57680;54.292;18.598;2023-07-13T06:43:39;6.30;;;2.23;;
70270;SDS011;57680;54.292;18.598;2023-07-13T06:46:04;5.78;;;2.15;;
70270;SDS011;57680;54.292;18.598;2023-07-13T06:48:30;5.27;;;2.40;;
70270;SDS011;57680;54.292;18.598;2023-07-13T06:50:56;8.45;;;2.20;;
70270;SDS011;57680;54.292;18.598;2023-07-13T06:53:22;5.63;;;2.20;;
70270;SDS011;57680;54.292;18.598;2023-07-13T06:55:48;6.35;;;2.35;;
70270;SDS011;57680;54.292;18.598;2023-07-13T06:58:14;5.90;;;2.00;;
70270;SDS011;57680;54.292;18.598;2023-07-13T07:00:41;4.85;;;1.98;;
70270;SDS011;57680;54.292;18.598;2023-07-13T07:03:06;5.27;;;1.90;;
70270;SDS011;57680;54.292;18.598;2023-07-13T07:05:32;4.90;;;1.70;;
70270;SDS011;57680;54.292;18.598;2023-07-13T07:07:58;5.80;;;1.50;;
70270;SDS011;57680;54.292;18.598;2023-07-13T07:10:23;5.60;;;1.70;;
70270;SDS011;57680;54.292;18.598;2023-07-13T07:12:50;6.68;;;1.85;;
70270;SDS011;57680;54.292;18.598;2023-07-13T07:15:15;4.40;;;1.88;;
70270;SDS011;57680;54.292;18.598;2023-07-13T07:17:42;5.30;;;1.90;;
70270;SDS011;57680;54.292;18.598;2023-07-13T07:20:07;5.40;;;1.87;;
70270;SDS011;57680;54.292;18.598;2023-07-13T07:22:33;6.70;;;1.83;;
70270;SDS011;57680;54.292;18.598;2023-07-13T07:24:59;5.93;;;1.87;;
70270;SDS011;57680;54.292;18.598;2023-07-13T07:27:24;5.25;;;1.80;;
70270;SDS011;57680;54.292;18.598;2023-07-13T07:29:50;4.60;;;1.97;;
70270;SDS011;57680;54.292;18.598;2023-07-13T07:32:16;6.70;;;1.77;;
70270;SDS011;57680;54.292;18.598;2023-07-13T07:34:41;7.65;;;2.20;;
70270;SDS011;57680;54.292;18.598;2023-07-13T07:37:09;6.37;;;1.97;;
70270;SDS011;57680;54.292;18.598;2023-07-13T07:39:36;5.60;;;2.22;;
70270;SDS011;57680;54.292;18.598;2023-07-13T07:42:02;5.20;;;2.00;;
70270;SDS011;57680;54.292;18.598;2023-07-13T07:44:27;5.70;;;2.10;;
70270;SDS011;57680;54.292;18.598;2023-07-13T07:46:53;5.70;;;2.00;;
70270;SDS011;57680;54.292;18.598;2023-07-13T07:49:18;6.03;;;1.73;;
70270;SDS011;57680;54.292;18.598;2023-07-13T07:51:44;7.20;;;2.00;;
70270;SDS011;57680;54.292;18.598;2023-07-13T07:54:09;6.60;;;1.97;;
70270;SDS011;57680;54.292;18.598;2023-07-13T07:56:36;5.10;;;2.00;;
70270;SDS011;57680;54.292;18.598;2023-07-13T07:59:01;5.43;;;2.00;;
70270;SDS011;57680;54.292;18.598;2023-07-13T08:01:27;4.97;;;1.80;;
70270;SDS011;57680;54.292;18.598;2023-07-13T08:03:52;6.15;;;1.92;;
70270;SDS011;57680;54.292;18.598;2023-07-13T08:06:18;5.13;;;1.73;;
70270;SDS011;57680;54.292;18.598;2023-07-13T08:08:43;4.77;;;1.90;;
70270;SDS011;57680;54.292;18.598;2023-07-13T08:11:09;7.23;;;2.20;;
70270;SDS011;57680;54.292;18.598;2023-07-13T08:13:34;4.57;;;1.90;;
70270;SDS011;57680;54.292;18.598;2023-07-13T08:16:00;6.32;;;2.08;;
70270;SDS011;57680;54.292;18.598;2023-07-13T08:18:26;6.93;;;1.90;;
70270;SDS011;57680;54.292;18.598;2023-07-13T08:20:51;6.68;;;2.00;;
70270;SDS011;57680;54.292;18.598;2023-07-13T08:23:17;6.33;;;2.00;;
70270;SDS011;57680;54.292;18.598;2023-07-13T08:25:42;6.30;;;1.90;;
70270;SDS011;57680;54.292;18.598;2023-07-13T08:28:08;5.15;;;1.70;;
70270;SDS011;57680;54.292;18.598;2023-07-13T08:30:33;3.50;;;1.50;;
70270;SDS011;57680;54.292;18.598;2023-07-13T08:32:59;5.47;;;1.70;;
70270;SDS011;57680;54.292;18.598;2023-07-13T08:35:24;5.65;;;1.83;;
70270;SDS011;57680;54.292;18.598;2023-07-13T08:37:50;4.07;;;1.80;;
70270;SDS011;57680;54.292;18.598;2023-07-13T08:40:25;4.47;;;1.77;;
70270;SDS011;57680;54.292;18.598;2023-07-13T08:42:53;5.78;;;1.85;;
70270;SDS011;57680;54.292;18.598;2023-07-13T08:45:54;6.07;;;1.47;;
70270;SDS011;57680;54.292;18.598;2023-07-13T08:48:35;4.97;;;1.80;;
70270;SDS011;57680;54.292;18.598;2023-07-13T08:51:26;6.65;;;1.90;;
70270;SDS011;57680;54.292;18.598;2023-07-13T08:54:28;5.85;;;1.65;;
70270;SDS011;57680;54.292;18.598;2023-07-13T08:57:18;5.28;;;1.50;;
70270;SDS011;57680;54.292;18.598;2023-07-13T08:59:46;5.83;;;1.50;;
70270;SDS011;57680;54.292;18.598;2023-07-13T09:07:14;5.00;;;1.70;;
70270;SDS011;57680;54.292;18.598;2023-07-13T09:14:48;4.43;;;1.75;;
70270;SDS011;57680;54.292;18.598;2023-07-13T09:17:21;5.22;;;1.58;;
70270;SDS011;57680;54.292;18.598;2023-07-13T09:19:53;3.63;;;1.63;;
70270;SDS011;57680;54.292;18.598;2023-07-13T09:22:24;4.43;;;1.70;;
70270;SDS011;57680;54.292;18.598;2023-07-13T09:24:57;6.00;;;1.77;;
70270;SDS011;57680;54.292;18.598;2023-07-13T09:27:33;5.43;;;1.52;;
70270;SDS011;57680;54.292;18.598;2023-07-13T09:32:44;6.05;;;1.38;;
70270;SDS011;57680;54.292;18.598;2023-07-13T09:35:15;4.30;;;1.70;;
70270;SDS011;57680;54.292;18.598;2023-07-13T09:37:44;5.10;;;1.53;;
70270;SDS011;57680;54.292;18.598;2023-07-13T09:40:23;4.32;;;1.50;;
70270;SDS011;57680;54.292;18.598;2023-07-13T09:42:55;4.38;;;1.77;;
70270;SDS011;57680;54.292;18.598;2023-07-13T09:45:27;3.78;;;1.73;;
70270;SDS011;57680;54.292;18.598;2023-07-13T09:48:04;4.65;;;1.80;;
70270;SDS011;57680;54.292;18.598;2023-07-13T09:50:37;6.83;;;1.80;;
70270;SDS011;57680;54.292;18.598;2023-07-13T09:53:02;4.28;;;1.50;;
70270;SDS011;57680;54.292;18.598;2023-07-13T09:57:53;6.17;;;1.70;;
70270;SDS011;57680;54.292;18.598;2023-07-13T10:00:26;4.68;;;1.75;;
70270;SDS011;57680;54.292;18.598;2023-07-13T10:03:00;3.92;;;1.85;;
70270;SDS011;57680;54.292;18.598;2023-07-13T10:05:36;4.80;;;2.00;;
70270;SDS011;57680;54.292;18.598;2023-07-13T10:08:03;4.57;;;1.55;;
70270;SDS011;57680;54.292;18.598;2023-07-13T10:10:29;4.87;;;1.50;;
70270;SDS011;57680;54.292;18.598;2023-07-13T10:12:54;5.17;;;1.70;;
70270;SDS011;57680;54.292;18.598;2023-07-13T10:15:23;4.90;;;1.70;;
70270;SDS011;57680;54.292;18.598;2023-07-13T10:17:51;5.25;;;1.65;;
70270;SDS011;57680;54.292;18.598;2023-07-13T10:20:18;6.55;;;1.70;;
70270;SDS011;57680;54.292;18.598;2023-07-13T10:25:37;6.00;;;1.70;;
70270;SDS011;57680;54.292;18.598;2023-07-13T10:28:10;5.57;;;1.85;;
70270;SDS011;57680;54.292;18.598;2023-07-13T10:30:44;5.45;;;1.60;;
70270;SDS011;57680;54.292;18.598;2023-07-13T10:33:12;6.15;;;1.80;;
70270;SDS011;57680;54.292;18.598;2023-07-13T10:35:39;4.27;;;1.60;;
70270;SDS011;57680;54.292;18.598;2023-07-13T10:38:10;5.65;;;2.25;;
70270;SDS011;57680;54.292;18.598;2023-07-13T10:40:42;9.77;;;1.75;;
70270;SDS011;57680;54.292;18.598;2023-07-13T10:43:18;6.43;;;1.60;;
70270;SDS011;57680;54.292;18.598;2023-07-13T10:45:48;3.13;;;1.40;;
70270;SDS011;57680;54.292;18.598;2023-07-13T10:48:14;4.33;;;1.50;;
70270;SDS011;57680;54.292;18.598;2023-07-13T10:50:40;3.88;;;1.13;;
70270;SDS011;57680;54.292;18.598;2023-07-13T10:53:19;4.22;;;1.50;;
70270;SDS011;57680;54.292;18.598;2023-07-13T11:03:29;3.65;;;1.45;;
70270;SDS011;57680;54.292;18.598;2023-07-13T11:06:09;4.20;;;1.40;;
70270;SDS011;57680;54.292;18.598;2023-07-13T11:08:54;2.97;;;1.25;;
70270;SDS011;57680;54.292;18.598;2023-07-13T11:19:08;3.80;;;1.30;;
70270;SDS011;57680;54.292;18.598;2023-07-13T11:22:16;5.87;;;1.43;;
70270;SDS011;57680;54.292;18.598;2023-07-13T11:24:52;3.65;;;1.40;;
70270;SDS011;57680;54.292;18.598;2023-07-13T11:27:36;6.68;;;1.42;;
70270;SDS011;57680;54.292;18.598;2023-07-13T11:30:23;4.60;;;1.42;;
70270;SDS011;57680;54.292;18.598;2023-07-13T11:33:02;5.82;;;1.40;;
70270;SDS011;57680;54.292;18.598;2023-07-13T11:38:31;4.45;;;1.60;;
70270;SDS011;57680;54.292;18.598;2023-07-13T11:41:05;4.05;;;1.20;;
70270;SDS011;57680;54.292;18.598;2023-07-13T11:43:33;4.47;;;1.50;;
70270;SDS011;57680;54.292;18.598;2023-07-13T11:45:58;4.88;;;1.50;;
70270;SDS011;57680;54.292;18.598;2023-07-13T11:48:28;4.17;;;1.47;;
70270;SDS011;57680;54.292;18.598;2023-07-13T11:50:58;4.50;;;1.60;;
70270;SDS011;57680;54.292;18.598;2023-07-13T11:53:29;4.93;;;1.70;;
70270;SDS011;57680;54.292;18.598;2023-07-13T11:56:04;4.28;;;1.85;;
70270;SDS011;57680;54.292;18.598;2023-07-13T11:58:30;4.38;;;1.75;;
70270;SDS011;57680;54.292;18.598;2023-07-13T12:00:57;4.60;;;1.80;;
70270;SDS011;57680;54.292;18.598;2023-07-13T12:03:25;6.22;;;1.92;;
70270;SDS011;57680;54.292;18.598;2023-07-13T12:05:57;7.68;;;2.00;;
70270;SDS011;57680;54.292;18.598;2023-07-13T12:08:25;5.68;;;2.20;;
70270;SDS011;57680;54.292;18.598;2023-07-13T12:10:56;6.50;;;2.15;;
70270;SDS011;57680;54.292;18.598;2023-07-13T12:13:26;6.17;;;1.93;;
70270;SDS011;57680;54.292;18.598;2023-07-13T12:15:52;5.80;;;2.60;;
70270;SDS011;57680;54.292;18.598;2023-07-13T12:18:19;5.70;;;1.80;;
70270;SDS011;57680;54.292;18.598;2023-07-13T12:20:55;8.95;;;2.30;;
70270;SDS011;57680;54.292;18.598;2023-07-13T12:23:29;7.65;;;2.25;;
70270;SDS011;57680;54.292;18.598;2023-07-13T12:25:57;9.52;;;2.42;;
70270;SDS011;57680;54.292;18.598;2023-07-13T12:28:32;5.65;;;1.75;;
70270;SDS011;57680;54.292;18.598;2023-07-13T12:31:02;6.53;;;2.30;;
70270;SDS011;57680;54.292;18.598;2023-07-13T12:33:29;7.43;;;2.20;;
70270;SDS011;57680;54.292;18.598;2023-07-13T12:35:56;5.25;;;1.80;;
70270;SDS011;57680;54.292;18.598;2023-07-13T12:38:24;8.13;;;2.10;;
70270;SDS011;57680;54.292;18.598;2023-07-13T12:40:50;6.63;;;1.75;;
70270;SDS011;57680;54.292;18.598;2023-07-13T12:43:17;6.13;;;2.00;;
70270;SDS011;57680;54.292;18.598;2023-07-13T12:48:23;7.67;;;2.27;;
70270;SDS011;57680;54.292;18.598;2023-07-13T12:50:49;5.85;;;2.30;;
70270;SDS011;57680;54.292;18.598;2023-07-13T12:53:16;10.15;;;2.40;;
70270;SDS011;57680;54.292;18.598;2023-07-13T12:56:01;8.75;;;2.38;;
70270;SDS011;57680;54.292;18.598;2023-07-13T12:58:39;7.70;;;2.27;;
70270;SDS011;57680;54.292;18.598;2023-07-13T13:01:06;9.40;;;2.28;;
70270;SDS011;57680;54.292;18.598;2023-07-13T13:03:38;5.13;;;1.95;;
70270;SDS011;57680;54.292;18.598;2023-07-13T13:06:06;4.68;;;1.80;;
70270;SDS011;57680;54.292;18.598;2023-07-13T13:08:57;6.35;;;2.30;;
70270;SDS011;57680;54.292;18.598;2023-07-13T13:11:23;6.90;;;2.17;;
70270;SDS011;57680;54.292;18.598;2023-07-13T13:13:50;5.40;;;1.83;;
70270;SDS011;57680;54.292;18.598;2023-07-13T13:16:22;13.68;;;2.60;;
70270;SDS011;57680;54.292;18.598;2023-07-13T13:18:55;5.88;;;1.90;;
70270;SDS011;57680;54.292;18.598;2023-07-13T13:21:22;11.30;;;2.17;;
70270;SDS011;57680;54.292;18.598;2023-07-13T13:23:48;8.35;;;1.95;;
70270;SDS011;57680;54.292;18.598;2023-07-13T13:26:14;8.43;;;2.10;;
70270;SDS011;57680;54.292;18.598;2023-07-13T13:28:41;8.57;;;1.90;;
70270;SDS011;57680;54.292;18.598;2023-07-13T13:31:09;5.40;;;1.60;;
70270;SDS011;57680;54.292;18.598;2023-07-13T13:33:36;6.40;;;1.90;;
70270;SDS011;57680;54.292;18.598;2023-07-13T13:36:01;5.05;;;1.80;;
70270;SDS011;57680;54.292;18.598;2023-07-13T13:38:27;6.97;;;2.00;;
70270;SDS011;57680;54.292;18.598;2023-07-13T13:40:53;7.33;;;1.87;;
70270;SDS011;57680;54.292;18.598;2023-07-13T13:43:20;7.13;;;1.90;;
70270;SDS011;57680;54.292;18.598;2023-07-13T13:45:47;6.78;;;1.80;;
70270;SDS011;57680;54.292;18.598;2023-07-13T13:48:19;6.93;;;1.80;;
70270;SDS011;57680;54.292;18.598;2023-07-13T13:50:51;9.73;;;2.13;;
70270;SDS011;57680;54.292;18.598;2023-07-13T13:53:17;7.87;;;1.80;;
70270;SDS011;57680;54.292;18.598;2023-07-13T13:55:42;10.87;;;2.20;;
70270;SDS011;57680;54.292;18.598;2023-07-13T13:58:08;9.88;;;2.05;;
70270;SDS011;57680;54.292;18.598;2023-07-13T14:00:34;5.70;;;1.90;;
70270;SDS011;57680;54.292;18.598;2023-07-13T14:03:01;12.57;;;2.60;;
70270;SDS011;57680;54.292;18.598;2023-07-13T14:05:26;6.45;;;1.90;;
70270;SDS011;57680;54.292;18.598;2023-07-13T14:07:52;11.53;;;2.40;;
70270;SDS011;57680;54.292;18.598;2023-07-13T14:10:18;7.63;;;1.98;;
70270;SDS011;57680;54.292;18.598;2023-07-13T14:12:53;13.20;;;2.25;;
70270;SDS011;57680;54.292;18.598;2023-07-13T14:15:24;6.93;;;1.83;;
70270;SDS011;57680;54.292;18.598;2023-07-13T14:17:54;5.65;;;1.50;;
70270;SDS011;57680;54.292;18.598;2023-07-13T14:20:20;5.55;;;1.60;;
70270;SDS011;57680;54.292;18.598;2023-07-13T14:22:48;6.25;;;1.60;;
70270;SDS011;57680;54.292;18.598;2023-07-13T14:25:14;5.30;;;1.60;;
70270;SDS011;57680;54.292;18.598;2023-07-13T14:27:41;5.87;;;1.77;;
70270;SDS011;57680;54.292;18.598;2023-07-13T14:30:12;5.63;;;1.50;;
70270;SDS011;57680;54.292;18.598;2023-07-13T14:32:38;7.05;;;1.33;;
70270;SDS011;57680;54.292;18.598;2023-07-13T14:35:04;4.03;;;1.20;;
70270;SDS011;57680;54.292;18.598;2023-07-13T14:37:30;6.55;;;1.70;;
70270;SDS011;57680;54.292;18.598;2023-07-13T14:39:55;5.00;;;1.33;;
70270;SDS011;57680;54.292;18.598;2023-07-13T14:42:20;4.53;;;1.43;;
70270;SDS011;57680;54.292;18.598;2023-07-13T14:44:46;4.20;;;1.40;;
70270;SDS011;57680;54.292;18.598;2023-07-13T14:47:11;5.93;;;1.45;;
70270;SDS011;57680;54.292;18.598;2023-07-13T14:49:38;5.03;;;1.50;;
70270;SDS011;57680;54.292;18.598;2023-07-13T14:52:14;3.92;;;1.40;;
70270;SDS011;57680;54.292;18.598;2023-07-13T14:54:42;4.80;;;1.30;;
70270;SDS011;57680;54.292;18.598;2023-07-13T14:57:11;4.20;;;1.30;;
70270;SDS011;57680;54.292;18.598;2023-07-13T14:59:42;5.85;;;1.10;;
70270;SDS011;57680;54.292;18.598;2023-07-13T15:02:27;3.33;;;1.17;;
70270;SDS011;57680;54.292;18.598;2023-07-13T15:04:55;5.05;;;1.60;;
70270;SDS011;57680;54.292;18.598;2023-07-13T15:07:20;6.10;;;1.30;;
70270;SDS011;57680;54.292;18.598;2023-07-13T15:09:46;4.57;;;1.30;;
70270;SDS011;57680;54.292;18.598;2023-07-13T15:12:12;5.97;;;1.40;;
70270;SDS011;57680;54.292;18.598;2023-07-13T15:14:39;3.20;;;1.30;;